Latest Coastal Weather Observations for Mornington Island Airport

IDQ60701

Issued at 8:31 pm EST Saturday 10 December 2016 (issued every 10 minutes, with the page automatically refreshed every 10 minutes)

About coastal observations | Map of coastal stations | Coastal observations for QLD | Marine services | Other Formats
Station Details ID: 029182 Name: MORNINGTON ISLAND AIRPORT Lat: -16.66 Lon: 139.17 Height: 9.52 m
Data from the previous 72 hours. | See also: Recent months at Mornington Island Airport
Date/Time
EST
Temp
°C
Wind Pressure Rain since
9am
mm
Weather Cloud Vis
km
Sea
Height
m
Swell
Dir  Spd
kts
Gust
kts
hPa Trend Height
m
Period
s
Dir
10/08:00pm 29.9 WNW 5 7 1008.9 - 0.0 - - - - - - -
10/07:30pm 29.8 NNW 4 5 1008.5 - 0.0 - - - - - - -
10/07:00pm 29.9 NNE 8 11 1007.6 - 0.0 - - - - - - -
10/06:30pm 30.1 NNE 9 12 1007.4 - 0.0 - - - - - - -
10/06:00pm 29.8 N 10 14 1007.2 - 0.0 - - - - - - -
10/05:30pm 30.2 N 11 16 1006.5 - 0.0 - - - - - - -
10/05:00pm 31.2 N 10 13 1006.6 - 0.0 - - - - - - -
10/04:30pm 31.8 NNE 9 13 1007.0 - 0.0 - - - - - - -
10/04:00pm 32.2 N 11 14 1007.2 - 0.0 - - - - - - -
10/03:30pm 31.8 N 11 14 1007.8 - 0.0 - - - - - - -
10/03:00pm 32.3 NNW 10 14 1008.1 - 0.0 - - - - - - -
10/02:30pm 32.4 NNW 11 18 1008.5 - 0.0 - - - - - - -
10/02:00pm 32.4 NW 12 15 1008.9 - 0.0 - - - - - - -
10/01:30pm 31.4 NNW 11 14 1009.3 - 0.0 - - - - - - -
10/01:00pm 32.1 N 10 15 1009.3 - 0.0 - - - - - - -
10/12:30pm 33.8 ESE 9 12 1009.3 - 0.0 - - - - - - -
10/12:00pm 35.2 SE 10 16 1009.5 - 0.0 - - - - - - -
10/11:30am 34.3 ESE 10 15 1009.7 - 0.0 - - - - - - -
10/11:00am 33.5 SE 12 16 1010.1 - 0.0 - - - - - - -
10/10:30am 33.6 SE 13 18 1010.4 - 0.0 - - - - - - -
10/10:00am 33.5 SE 11 19 1010.4 - 0.0 - - - - - - -
10/09:30am 33.2 SE 13 19 1010.3 - 0.0 - - - - - - -
10/09:00am 33.2 SE 12 18 1010.3 - 0.0 - - - - - - -
10/08:30am 32.9 ESE 15 23 1009.9 - 0.0 - - - - - - -
10/08:00am 32.6 SE 10 17 1009.5 - 0.0 - - - - - - -
10/07:30am 32.1 SSE 10 15 1009.3 - 0.0 - - - - - - -
10/07:00am 31.7 SE 7 11 1009.2 - 0.0 - - - - - - -
10/06:30am 30.8 SE 6 9 1008.7 - 0.0 - - - - - - -
10/06:00am 29.9 SE 4 5 1008.4 - 0.0 - - - - - - -
10/05:30am 30.5 SW 3 4 1007.8 - 0.0 - - - - - - -
10/05:00am 30.9 WSW 6 7 1007.5 - 0.0 - - - - - - -
10/04:30am 30.9 WNW 8 9 1007.5 - 0.0 - - - - - - -
10/04:00am 30.6 W 5 6 1007.4 - 0.0 - - - - - - -
10/03:30am 30.4 NW 7 8 1007.0 - 0.0 - - - - - - -
10/03:00am 30.4 NW 8 10 1007.0 - 0.0 - - - - - - -
10/02:30am 30.5 WNW 9 11 1007.3 - 0.0 - - - - - - -
10/02:00am 30.5 NW 9 11 1007.5 - 0.0 - - - - - - -
10/01:30am 30.7 WNW 8 10 1008.1 - 0.0 - - - - - - -
10/01:00am 30.6 WNW 9 12 1008.3 - 0.0 - - - - - - -
10/12:30am 30.7 WNW 9 11 1008.7 - 0.0 - - - - - - -
10/12:00am 30.8 WNW 9 11 1008.8 - 0.0 - - - - - - -
 
Date/Time
EST
Temp
°C
Wind Pressure Rain since
9am
mm
Weather Cloud Vis
km
Sea
Height
m
Swell
Dir  Spd
kts
Gust
kts
hPa Trend Height
m
Period
s
Dir
09/11:30pm 30.6 WNW 9 11 1008.9 - 0.0 - - - - - - -
09/11:00pm 30.7 WNW 10 12 1008.8 - 0.0 - - - - - - -
09/10:30pm 30.7 NW 10 13 1008.5 - 0.0 - - - - - - -
09/10:00pm 30.5 NNW 8 11 1007.8 - 0.0 - - - - - - -
09/09:30pm 30.6 NNW 10 13 1007.4 - 0.0 - - - - - - -
09/09:00pm 30.7 NNW 9 12 1007.0 - 0.0 - - - - - - -
09/08:30pm 30.8 NNW 9 11 1006.8 - 0.0 - - - - - - -
09/08:00pm 30.9 N 8 11 1006.6 - 0.0 - - - - - - -
09/07:30pm 31.1 N 9 11 1006.3 - 0.0 - - - - - - -
09/07:00pm 31.4 NNE 9 13 1006.2 - 0.0 - - - - - - -
09/06:30pm 32.2 NNE 10 13 1006.0 - 0.0 - - - - - - -
09/06:00pm 33.4 N 10 13 1005.9 - 0.0 - - - - - - -
09/05:30pm 36.7 ENE 5 9 1005.7 - 0.0 - - - - - - -
09/05:00pm 36.3 ENE 7 11 1005.6 - 0.0 - - - - - - -
09/04:30pm 36.1 ESE 9 13 1005.8 - 0.0 - - - - - - -
09/04:00pm 35.8 ESE 9 14 1006.0 - 0.0 - - - - - - -
09/03:30pm 35.5 SE 11 15 1006.2 - 0.0 - - - - - - -
09/03:00pm 35.6 ESE 10 13 1006.7 - 0.0 - - - - - - -
09/02:30pm 35.8 SE 8 11 1007.2 - 0.0 - - - - - - -
09/02:00pm 34.4 SE 9 13 1007.6 - 0.0 - - - - - - -
09/01:30pm 34.9 SSE 10 17 1007.8 - 0.0 - - - - - - -
09/01:00pm 34.2 SE 11 17 1008.2 - 0.0 - - - - - - -
09/12:30pm 34.2 SE 10 17 1008.7 - 0.0 - - - - - - -
09/12:00pm 33.7 ESE 11 17 1009.2 - 0.0 - - - - - - -
09/11:30am 33.9 SSE 8 14 1009.5 - 0.0 - - - - - - -
09/11:00am 33.2 SE 10 19 1010.0 - 0.0 - - - - - - -
09/10:30am 32.8 ESE 10 16 1010.2 - 0.0 - - - - - - -
09/10:00am 32.5 ESE 7 11 1010.4 - 0.0 - - - - - - -
09/09:30am 30.6 E 7 11 1010.7 - 0.0 - - - - - - -
09/09:00am 29.0 E 11 18 1010.8 - 0.0 - - - - - - -
09/08:30am 30.8 SSW 2 5 1010.5 - 0.0 - - - - - - -
09/08:00am 30.7 CALM 0 3 1010.4 - 0.0 - - - - - - -
09/07:30am 29.6 ESE 1 3 1010.4 - 0.0 - - - - - - -
09/07:00am 28.9 ESE 4 4 1009.7 - 0.0 - - - - - - -
09/06:30am 28.9 NE 4 6 1009.2 - 0.0 - - - - - - -
09/06:00am 28.7 CALM 0 0 1008.8 - 0.0 - - - - - - -
09/05:30am 28.5 SSW 2 5 1008.1 - 0.0 - - - - - - -
09/05:00am 28.4 SSW 4 8 1007.7 - 0.0 - - - - - - -
09/04:30am 28.3 S 6 10 1007.2 - 0.0 - - - - - - -
09/04:00am 29.2 SSW 7 12 1006.9 - 0.0 - - - - - - -
09/03:30am 30.1 WNW 9 11 1006.2 - 0.0 - - - - - - -
09/03:00am 30.1 WNW 9 11 1006.3 - 0.0 - - - - - - -
09/02:30am 30.1 NW 9 11 1006.5 - 0.0 - - - - - - -
09/02:00am 30.1 WNW 8 10 1006.6 - 0.0 - - - - - - -
09/01:30am 30.2 WNW 8 9 1006.7 - 0.0 - - - - - - -
09/01:00am 30.0 WNW 8 9 1006.8 - 0.0 - - - - - - -
09/12:30am 29.9 WNW 8 10 1007.0 - 0.0 - - - - - - -
09/12:00am 29.7 W 7 9 1007.5 - 0.0 - - - - - - -
 
Date/Time
EST
Temp
°C
Wind Pressure Rain since
9am
mm
Weather Cloud Vis
km
Sea
Height
m
Swell
Dir  Spd
kts
Gust
kts
hPa Trend Height
m
Period
s
Dir
08/11:30pm 29.7 WNW 8 10 1007.9 - 0.0 - - - - - - -
08/11:00pm 29.8 WNW 8 10 1008.0 - 0.0 - - - - - - -
08/10:30pm 29.8 NW 8 10 1008.0 - 0.0 - - - - - - -
08/10:00pm 29.8 NNW 8 10 1007.7 - 0.0 - - - - - - -
08/09:30pm 29.6 NNW 6 8 1007.5 - 0.0 - - - - - - -
08/09:00pm 29.8 NNW 8 10 1007.4 - 0.0 - - - - - - -
08/08:30pm 29.6 NNW 6 9 1007.3 - 0.0 - - - - - - -
08/08:00pm 29.7 NNW 6 7 1007.3 - 0.0 - - - - - - -
08/07:30pm 29.9 N 6 9 1007.2 - 0.0 - - - - - - -
08/07:00pm 30.0 N 8 11 1006.9 - 0.0 - - - - - - -
08/06:30pm 30.6 N 9 12 1006.7 - 0.0 - - - - - - -
08/06:00pm 31.0 N 10 12 1006.5 - 0.0 - - - - - - -
08/05:30pm 31.1 N 10 13 1006.4 - 0.0 - - - - - - -
08/05:00pm 31.9 N 11 14 1006.2 - 0.0 - - - - - - -
08/04:30pm 31.5 N 11 15 1006.3 - 0.0 - - - - - - -
08/04:00pm 31.8 N 11 17 1006.2 - 0.0 - - - - - - -
08/03:30pm 32.1 NNW 12 16 1006.5 - 0.0 - - - - - - -
08/03:00pm 32.1 N 11 17 1006.7 - 0.0 - - - - - - -
08/02:30pm 31.9 NNW 12 18 1006.8 - 0.0 - - - - - - -
08/02:00pm 32.7 NNW 12 17 1007.0 - 0.0 - - - - - - -
08/01:30pm 33.6 NNW 13 19 1007.2 - 0.0 - - - - - - -
08/01:00pm 32.6 N 13 19 1007.5 - 0.0 - - - - - - -
08/12:30pm 33.2 N 13 18 1007.9 - 0.0 - - - - - - -
08/12:00pm 32.7 N 12 18 1008.2 - 0.0 - - - - - - -
08/11:30am 32.6 N 13 16 1008.5 - 0.0 - - - - - - -
08/11:00am 32.9 N 11 16 1008.7 - 0.0 - - - - - - -
08/10:30am 32.4 N 12 18 1008.9 - 0.0 - - - - - - -
08/10:00am 32.8 N 12 16 1008.9 - 0.0 - - - - - - -
08/09:30am 32.3 NNE 10 15 1009.0 - 0.0 - - - - - - -
08/09:00am 31.7 N 10 14 1009.0 - 0.0 - - - - - - -
08/08:30am 31.7 NNE 8 11 1009.1 - 0.0 - - - - - - -
08/08:00am 30.8 NW 5 7 1009.0 - 0.0 - - - - - - -
08/07:30am 30.6 NW 5 7 1008.7 - 0.0 - - - - - - -
08/07:00am 30.1 NW 7 9 1008.2 - 0.0 - - - - - - -
08/06:30am 29.6 WNW 9 11 1007.7 - 0.0 - - - - - - -
08/06:00am 29.4 WNW 9 11 1007.1 - 0.0 - - - - - - -
08/05:30am 29.3 W 8 11 1006.9 - 0.0 - - - - - - -
08/05:00am 29.3 WNW 10 13 1006.7 - 0.0 - - - - - - -
08/04:30am 29.4 WNW 9 12 1006.4 - 0.0 - - - - - - -
08/04:00am 29.2 NW 10 12 1006.3 - 0.0 - - - - - - -
08/03:30am 29.4 NW 10 13 1006.3 - 0.0 - - - - - - -
08/03:00am 29.3 NW 9 11 1006.5 - 0.0 - - - - - - -
08/02:30am 29.3 NW 10 11 1006.4 - 0.0 - - - - - - -
08/02:00am 29.2 NW 9 11 1006.6 - 0.0 - - - - - - -
08/01:30am 29.2 NW 10 13 1006.9 - 0.0 - - - - - - -
08/01:00am 29.3 NNW 9 12 1007.3 - 0.0 - - - - - - -
08/12:30am 29.4 NNW 10 12 1007.7 - 0.0 - - - - - - -
08/12:00am 29.4 NNW 9 11 1008.1 - 0.0 - - - - - - -
 
Date/Time
EST
Temp
°C
Wind Pressure Rain since
9am
mm
Weather Cloud Vis
km
Sea
Height
m
Swell
Dir  Spd
kts
Gust
kts
hPa Trend Height
m
Period
s
Dir
07/11:30pm 29.1 NNW 8 11 1008.3 - 0.0 - - - - - - -
07/11:00pm 29.1 N 9 11 1008.3 - 0.0 - - - - - - -
07/10:30pm 29.1 NNW 8 12 1008.4 - 0.0 - - - - - - -
07/10:00pm 29.1 N 8 11 1008.3 - 0.0 - - - - - - -
07/09:30pm 29.2 N 8 11 1008.1 - 0.0 - - - - - - -
07/09:00pm 29.2 N 8 11 1007.9 - 0.0 - - - - - - -

Other Formats:

Comma delimited format used in spreadsheet applications
http://www.bom.gov.au/fwo/IDQ60701/IDQ60701.94254.axf

JavaScript Object Notation format (JSON) in row-major order
http://www.bom.gov.au/fwo/IDQ60701/IDQ60701.94254.json